Time;durP1;ratioP1;P1;durP2;ratioP2;P2;SDS_P1;SDS_P2;PMS_P1;PMS_P2;Temp;Humidity;BMP_temperature;BMP_pressure;BME280_temperature;BME280_humidity;BME280_pressure;Samples;Min_cycle;Max_cycle;Signal;HPM_P1;HPM_P2
2022/05/24 00:01:20;;;;;;;2.40;1.35;;;;;;;;;;4949873;29;20035;-80
2022/05/24 00:03:46;;;;;;;3.65;1.48;;;;;;;;;;4935067;29;20035;-80
2022/05/24 00:06:12;;;;;;;2.38;1.20;;;;;;;;;;4935110;29;20746;-80
2022/05/24 00:08:37;;;;;;;3.03;1.40;;;;;;;;;;4919002;28;20045;-80
2022/05/24 00:11:03;;;;;;;2.85;1.13;;;;;;;;;;4934915;29;20444;-79
2022/05/24 00:13:28;;;;;;;4.55;1.30;;;;;;;;;;4934773;29;20682;-80
2022/05/24 00:15:54;;;;;;;2.13;1.27;;;;;;;;;;4919370;29;20093;-81
2022/05/24 00:18:22;;;;;;;2.97;1.30;;;;;;;;;;4934551;28;20058;-80
2022/05/24 00:20:53;;;;;;;2.85;1.67;;;;;;;;;;4919343;28;20047;-80
2022/05/24 00:23:19;;;;;;;3.38;1.40;;;;;;;;;;4919847;28;20054;-80
2022/05/24 00:25:49;;;;;;;1.80;1.33;;;;;;;;;;4919242;29;20401;-81
2022/05/24 00:28:15;;;;;;;3.78;1.38;;;;;;;;;;4985224;28;20456;-80
2022/05/24 00:30:41;;;;;;;2.88;1.48;;;;;;;;;;4997764;28;20066;-80
2022/05/24 00:33:07;;;;;;;2.95;1.23;;;;;;;;;;4997923;28;20078;-81
2022/05/24 00:35:33;;;;;;;4.68;1.58;;;;;;;;;;5014804;28;20071;-80
2022/05/24 00:37:58;;;;;;;2.30;0.90;;;;;;;;;;4981652;28;20040;-80
2022/05/24 00:40:45;;;;;;;2.17;1.13;;;;;;;;;;4998297;28;20395;-80
2022/05/24 00:43:23;;;;;;;3.22;1.27;;;;;;;;;;4975294;28;20043;-80
2022/05/24 00:45:49;;;;;;;2.70;1.08;;;;;;;;;;4978967;28;20036;-81
2022/05/24 00:48:25;;;;;;;2.35;1.00;;;;;;;;;;4997085;28;20028;-80
2022/05/24 00:50:51;;;;;;;2.72;0.98;;;;;;;;;;5007095;28;20040;-80
2022/05/24 00:53:22;;;;;;;3.08;1.25;;;;;;;;;;4918907;28;20118;-80
2022/05/24 00:55:55;;;;;;;2.25;1.20;;;;;;;;;;4934004;28;20524;-80
2022/05/24 00:58:33;;;;;;;3.40;1.45;;;;;;;;;;4934123;28;20039;-80
2022/05/24 01:00:59;;;;;;;2.45;1.58;;;;;;;;;;4934513;28;20125;-80
2022/05/24 01:03:25;;;;;;;3.28;1.50;;;;;;;;;;4934242;29;20039;-80
2022/05/24 01:05:50;;;;;;;2.80;1.30;;;;;;;;;;4948045;28;20050;-80
2022/05/24 01:08:16;;;;;;;2.42;1.27;;;;;;;;;;4952336;28;20096;-81
2022/05/24 01:10:49;;;;;;;3.08;1.25;;;;;;;;;;4953025;28;20104;-80
2022/05/24 01:13:23;;;;;;;5.45;1.65;;;;;;;;;;5020501;28;20030;-80
2022/05/24 01:15:48;;;;;;;3.22;1.25;;;;;;;;;;5020618;28;20064;-80
2022/05/24 01:18:14;;;;;;;2.53;1.10;;;;;;;;;;4953088;28;20562;-80
2022/05/24 01:20:40;;;;;;;4.43;1.48;;;;;;;;;;4953081;28;20037;-80
2022/05/24 01:23:22;;;;;;;2.95;1.20;;;;;;;;;;4953364;28;20031;-80
2022/05/24 01:26:04;;;;;;;3.13;0.90;;;;;;;;;;4935445;28;20055;-79
2022/05/24 01:29:01;;;;;;;2.15;1.17;;;;;;;;;;5017074;28;20415;-80
2022/05/24 01:36:09;;;;;;;2.75;1.30;;;;;;;;;;4970838;28;20055;-80
2022/05/24 01:36:57;;;;;;;3.45;1.20;;;;;;;;;;4930719;29;20067;-80
2022/05/24 01:39:23;;;;;;;2.95;1.05;;;;;;;;;;4930835;29;20498;-80
2022/05/24 01:41:48;;;;;;;2.42;1.15;;;;;;;;;;4930562;29;20043;-80
2022/05/24 01:44:16;;;;;;;2.30;1.00;;;;;;;;;;4930272;29;20425;-80
2022/05/24 01:46:44;;;;;;;4.22;1.45;;;;;;;;;;4930099;29;20040;-80
2022/05/24 01:49:11;;;;;;;2.80;1.30;;;;;;;;;;4930502;28;20040;-80
2022/05/24 01:51:39;;;;;;;2.72;1.17;;;;;;;;;;4997799;28;20039;-80
2022/05/24 01:54:04;;;;;;;3.33;1.38;;;;;;;;;;4967736;28;20031;-80
2022/05/24 01:56:35;;;;;;;2.90;1.20;;;;;;;;;;5016585;28;20050;-80
2022/05/24 01:59:01;;;;;;;3.08;0.98;;;;;;;;;;4999813;28;20184;-80
2022/05/24 02:01:32;;;;;;;2.75;0.95;;;;;;;;;;5016421;28;20034;-80
2022/05/24 02:04:00;;;;;;;3.67;0.88;;;;;;;;;;5016460;28;20130;-80
2022/05/24 02:06:26;;;;;;;3.72;1.25;;;;;;;;;;5017191;28;20510;-81
2022/05/24 02:08:52;;;;;;;3.60;1.00;;;;;;;;;;5016652;28;20506;-80
2022/05/24 02:11:20;;;;;;;1.63;0.90;;;;;;;;;;5016829;28;20505;-81
2022/05/24 02:13:46;;;;;;;1.80;0.73;;;;;;;;;;4933730;29;20035;-80
2022/05/24 02:16:17;;;;;;;1.85;0.80;;;;;;;;;;4999970;28;20039;-81
2022/05/24 02:18:44;;;;;;;2.33;0.90;;;;;;;;;;4984619;28;20031;-80
2022/05/24 02:21:09;;;;;;;2.90;1.27;;;;;;;;;;5020384;28;20040;-80
2022/05/24 02:23:45;;;;;;;1.77;1.10;;;;;;;;;;5004130;28;20132;-80
2022/05/24 02:26:11;;;;;;;2.65;1.30;;;;;;;;;;4938911;28;20028;-80
2022/05/24 02:28:37;;;;;;;2.88;0.85;;;;;;;;;;5004049;28;20047;-80
2022/05/24 02:31:08;;;;;;;2.67;0.85;;;;;;;;;;5020361;28;20528;-80
2022/05/24 02:33:34;;;;;;;2.33;0.73;;;;;;;;;;4920634;29;20043;-80
2022/05/24 02:35:59;;;;;;;2.90;0.82;;;;;;;;;;4920908;28;20043;-80
2022/05/24 02:38:25;;;;;;;2.63;0.98;;;;;;;;;;4952299;29;20046;-80
2022/05/24 02:43:34;;;;;;;5.95;1.20;;;;;;;;;;4936144;29;20122;-81
2022/05/24 02:46:00;;;;;;;2.20;0.98;;;;;;;;;;4936259;28;20146;-80
2022/05/24 02:48:25;;;;;;;2.17;0.70;;;;;;;;;;4919909;29;20093;-80
2022/05/24 02:50:51;;;;;;;2.25;0.82;;;;;;;;;;4920249;29;20046;-81
2022/05/24 02:53:16;;;;;;;4.03;1.10;;;;;;;;;;4935960;29;20067;-80
2022/05/24 02:55:42;;;;;;;1.92;0.80;;;;;;;;;;4920344;28;20591;-80
2022/05/24 02:58:08;;;;;;;2.38;0.90;;;;;;;;;;4932602;28;20079;-80
2022/05/24 03:00:33;;;;;;;2.17;0.77;;;;;;;;;;4967834;28;20040;-80
2022/05/24 03:02:59;;;;;;;4.13;0.90;;;;;;;;;;4934353;29;20421;-80
2022/05/24 03:05:24;;;;;;;2.55;0.80;;;;;;;;;;4951841;29;20077;-80
2022/05/24 03:10:34;;;;;;;3.20;0.98;;;;;;;;;;4938526;29;20053;-81
2022/05/24 03:15:44;;;;;;;1.73;0.77;;;;;;;;;;4938178;29;20445;-81
2022/05/24 03:18:11;;;;;;;3.50;0.80;;;;;;;;;;4951291;29;20044;-80
2022/05/24 03:20:37;;;;;;;3.20;0.70;;;;;;;;;;4936080;28;20114;-80
2022/05/24 03:23:03;;;;;;;2.53;0.95;;;;;;;;;;4951858;29;20100;-80
2022/05/24 03:25:31;;;;;;;3.13;1.10;;;;;;;;;;4935541;28;20498;-80
2022/05/24 03:27:57;;;;;;;2.88;0.82;;;;;;;;;;5002728;28;20054;-81
2022/05/24 03:30:22;;;;;;;2.78;0.95;;;;;;;;;;4984820;28;20039;-81
2022/05/24 03:32:49;;;;;;;2.38;0.90;;;;;;;;;;5002649;28;20122;-81
2022/05/24 03:35:14;;;;;;;2.70;0.75;;;;;;;;;;4935529;29;20039;-81
2022/05/24 03:37:41;;;;;;;2.47;0.90;;;;;;;;;;4986314;28;20118;-80
2022/05/24 03:40:07;;;;;;;1.80;0.65;;;;;;;;;;4935800;28;20434;-81
2022/05/24 03:42:32;;;;;;;1.92;0.55;;;;;;;;;;5002364;28;20134;-81
2022/05/24 03:44:58;;;;;;;3.83;1.08;;;;;;;;;;4934982;29;20472;-80
2022/05/24 03:47:23;;;;;;;2.08;0.60;;;;;;;;;;4918895;29;20058;-80
2022/05/24 03:49:49;;;;;;;3.10;0.70;;;;;;;;;;4919456;29;20048;-80
2022/05/24 03:52:15;;;;;;;2.05;0.68;;;;;;;;;;5002468;28;20031;-80
2022/05/24 03:54:40;;;;;;;2.80;0.80;;;;;;;;;;4935755;29;20039;-81
2022/05/24 03:59:49;;;;;;;4.50;1.38;;;;;;;;;;4921301;28;20486;-80
2022/05/24 04:02:15;;;;;;;2.00;0.40;;;;;;;;;;4934959;28;20071;-80
2022/05/24 04:04:41;;;;;;;2.03;0.47;;;;;;;;;;4935346;28;20470;-81
2022/05/24 04:07:06;;;;;;;2.38;0.55;;;;;;;;;;5001891;28;20302;-80
2022/05/24 04:09:33;;;;;;;2.08;0.52;;;;;;;;;;4934957;28;20077;-80
2022/05/24 04:11:58;;;;;;;2.75;0.63;;;;;;;;;;4935077;28;20510;-79
2022/05/24 04:14:24;;;;;;;3.22;0.70;;;;;;;;;;4934684;29;20135;-80
2022/05/24 04:16:49;;;;;;;2.28;0.52;;;;;;;;;;4985129;28;20039;-80
2022/05/24 04:19:15;;;;;;;2.13;0.60;;;;;;;;;;4934932;28;20497;-80
2022/05/24 04:21:40;;;;;;;1.83;0.50;;;;;;;;;;4934820;29;20046;-79
2022/05/24 04:24:06;;;;;;;3.25;1.00;;;;;;;;;;4934616;29;20425;-80
2022/05/24 04:26:31;;;;;;;1.40;0.65;;;;;;;;;;4985178;28;20401;-80
2022/05/24 04:28:57;;;;;;;4.53;1.00;;;;;;;;;;5000997;28;20425;-80
2022/05/24 04:31:23;;;;;;;1.38;0.50;;;;;;;;;;4933426;28;20031;-80
2022/05/24 04:33:48;;;;;;;2.55;0.50;;;;;;;;;;4933396;29;20040;-80
2022/05/24 04:36:15;;;;;;;2.72;0.70;;;;;;;;;;4918386;29;20036;-80
2022/05/24 04:38:40;;;;;;;1.70;0.63;;;;;;;;;;4934232;28;20043;-80
2022/05/24 04:43:50;;;;;;;2.60;0.80;;;;;;;;;;4936311;29;20035;-81
2022/05/24 04:46:15;;;;;;;1.63;0.77;;;;;;;;;;4917883;29;20119;-81
2022/05/24 04:48:41;;;;;;;4.35;1.17;;;;;;;;;;4930960;28;20070;-81
2022/05/24 04:51:06;;;;;;;2.63;0.73;;;;;;;;;;4991125;28;20028;-83
2022/05/24 04:53:32;;;;;;;2.28;0.60;;;;;;;;;;4952326;28;20219;-83
2022/05/24 04:55:57;;;;;;;3.88;1.00;;;;;;;;;;4950822;28;20104;-81
2022/05/24 04:58:23;;;;;;;3.63;1.40;;;;;;;;;;4917322;28;20047;-82
2022/05/24 05:00:48;;;;;;;5.85;1.10;;;;;;;;;;4984265;28;20035;-82
2022/05/24 05:03:17;;;;;;;4.47;1.17;;;;;;;;;;4918143;29;20070;-82
2022/05/24 05:05:43;;;;;;;6.38;1.40;;;;;;;;;;4934942;28;20038;-82
2022/05/24 05:08:08;;;;;;;8.02;1.40;;;;;;;;;;4953293;28;20447;-81
2022/05/24 05:10:34;;;;;;;7.72;1.30;;;;;;;;;;4953478;28;20508;-82
2022/05/24 05:13:03;;;;;;;4.22;1.25;;;;;;;;;;5019987;28;20077;-82
2022/05/24 05:15:29;;;;;;;6.20;1.60;;;;;;;;;;4953150;28;20122;-81
2022/05/24 05:18:10;;;;;;;6.05;1.80;;;;;;;;;;4952896;28;20129;-82
2022/05/24 05:20:39;;;;;;;5.18;1.30;;;;;;;;;;4953268;28;20626;-82
2022/05/24 05:23:10;;;;;;;9.18;1.52;;;;;;;;;;4953590;28;20042;-82
2022/05/24 05:25:37;;;;;;;4.70;1.65;;;;;;;;;;4951352;28;20536;-82
2022/05/24 05:28:02;;;;;;;12.52;2.30;;;;;;;;;;5000334;28;20412;-82
2022/05/24 05:33:14;;;;;;;7.47;1.65;;;;;;;;;;4987924;28;20094;-82
2022/05/24 05:35:39;;;;;;;5.97;1.92;;;;;;;;;;4997885;28;20123;-82
2022/05/24 05:38:05;;;;;;;5.82;1.40;;;;;;;;;;4997837;28;20067;-82
2022/05/24 05:40:31;;;;;;;6.22;1.65;;;;;;;;;;4980923;28;20039;-82
2022/05/24 05:42:57;;;;;;;4.32;1.65;;;;;;;;;;4997201;28;20209;-82
2022/05/24 05:45:22;;;;;;;4.10;1.50;;;;;;;;;;4997284;28;20035;-82
2022/05/24 05:47:48;;;;;;;6.68;2.83;;;;;;;;;;4983562;28;20031;-81
2022/05/24 05:50:14;;;;;;;8.13;3.05;;;;;;;;;;4930532;29;20071;-80
2022/05/24 05:52:39;;;;;;;6.88;3.65;;;;;;;;;;4997094;28;20043;-80
2022/05/24 05:55:05;;;;;;;7.88;3.42;;;;;;;;;;4933273;28;20391;-81
2022/05/24 05:57:31;;;;;;;9.68;4.57;;;;;;;;;;4942737;28;20078;-81
2022/05/24 05:59:56;;;;;;;11.70;4.05;;;;;;;;;;4964688;28;20075;-81
2022/05/24 06:02:22;;;;;;;8.80;3.40;;;;;;;;;;4975219;28;20488;-80
2022/05/24 06:04:47;;;;;;;11.05;3.60;;;;;;;;;;4949225;29;20417;-81
2022/05/24 06:07:15;;;;;;;10.13;3.58;;;;;;;;;;4918606;28;20490;-80
2022/05/24 06:09:41;;;;;;;12.35;3.75;;;;;;;;;;4933382;29;20042;-81
2022/05/24 06:12:07;;;;;;;9.13;3.65;;;;;;;;;;4949415;29;20057;-81
2022/05/24 06:14:36;;;;;;;7.07;3.03;;;;;;;;;;4949751;29;20027;-80
2022/05/24 06:17:01;;;;;;;8.80;2.92;;;;;;;;;;4917129;29;20526;-81
2022/05/24 06:19:26;;;;;;;8.77;2.10;;;;;;;;;;4949119;29;20634;-80
2022/05/24 06:21:52;;;;;;;4.90;1.73;;;;;;;;;;4933315;29;20112;-81
2022/05/24 06:24:17;;;;;;;6.85;2.28;;;;;;;;;;4933144;28;20455;-81
2022/05/24 06:26:43;;;;;;;7.40;2.15;;;;;;;;;;4999077;28;20413;-80
2022/05/24 06:29:08;;;;;;;9.30;1.90;;;;;;;;;;4915416;29;20043;-80
2022/05/24 06:31:34;;;;;;;7.32;2.13;;;;;;;;;;4931321;29;20402;-80
2022/05/24 06:33:59;;;;;;;6.00;2.00;;;;;;;;;;4916367;29;20070;-80
2022/05/24 06:36:25;;;;;;;6.13;1.58;;;;;;;;;;4998262;28;20039;-80
2022/05/24 06:38:50;;;;;;;3.90;1.42;;;;;;;;;;4997829;28;20053;-80
2022/05/24 06:41:16;;;;;;;5.63;1.50;;;;;;;;;;4932024;28;20089;-81
2022/05/24 06:43:44;;;;;;;5.05;1.20;;;;;;;;;;4917001;29;20046;-81
2022/05/24 06:46:09;;;;;;;9.05;1.80;;;;;;;;;;4999518;28;20049;-80
2022/05/24 06:48:40;;;;;;;3.70;1.20;;;;;;;;;;4932897;28;20118;-80
2022/05/24 06:51:17;;;;;;;7.53;1.25;;;;;;;;;;5015497;28;20032;-79
2022/05/24 06:53:43;;;;;;;10.27;1.65;;;;;;;;;;4932976;28;20114;-80
2022/05/24 06:56:09;;;;;;;5.05;1.00;;;;;;;;;;4916500;28;20045;-80
2022/05/24 06:58:34;;;;;;;4.30;1.15;;;;;;;;;;4932599;29;20043;-81
2022/05/24 07:03:45;;;;;;;4.18;1.63;;;;;;;;;;4916607;28;20040;-81
2022/05/24 07:06:12;;;;;;;8.45;2.55;;;;;;;;;;4915169;28;20126;-80
2022/05/24 07:08:39;;;;;;;4.78;1.17;;;;;;;;;;4916670;29;20043;-80
2022/05/24 07:11:04;;;;;;;5.38;0.98;;;;;;;;;;4932948;29;20040;-80
2022/05/24 07:13:30;;;;;;;3.70;0.82;;;;;;;;;;4932839;29;20035;-80
2022/05/24 07:15:55;;;;;;;4.20;1.10;;;;;;;;;;4916796;29;20047;-80
2022/05/24 07:18:21;;;;;;;3.15;0.93;;;;;;;;;;4916465;29;20067;-80
2022/05/24 07:20:46;;;;;;;2.47;0.60;;;;;;;;;;4916767;29;20418;-80
2022/05/24 07:23:16;;;;;;;3.22;1.25;;;;;;;;;;4932233;29;20039;-80
2022/05/24 07:25:42;;;;;;;2.72;0.70;;;;;;;;;;4919757;29;20073;-81
2022/05/24 07:28:08;;;;;;;3.20;0.52;;;;;;;;;;5002649;28;20056;-81
2022/05/24 07:30:34;;;;;;;3.70;0.63;;;;;;;;;;4986423;28;20496;-81
2022/05/24 07:33:00;;;;;;;1.77;0.47;;;;;;;;;;5003296;28;20028;-80
2022/05/24 07:35:26;;;;;;;3.83;0.75;;;;;;;;;;5002508;28;20137;-81
2022/05/24 07:37:51;;;;;;;2.30;0.70;;;;;;;;;;5002123;28;20122;-81
2022/05/24 07:45:48;;;;;;;3.63;0.70;;;;;;;;;;5007896;28;20448;-80
2022/05/24 07:48:13;;;;;;;2.15;0.55;;;;;;;;;;4984826;28;20501;-81
2022/05/24 07:50:39;;;;;;;2.10;0.47;;;;;;;;;;4935495;29;20062;-81
2022/05/24 07:53:05;;;;;;;2.10;0.30;;;;;;;;;;4935186;29;20405;-81
2022/05/24 07:55:30;;;;;;;1.75;0.40;;;;;;;;;;4935317;29;20047;-80
2022/05/24 07:57:57;;;;;;;3.05;0.77;;;;;;;;;;4935065;28;20036;-81
2022/05/24 08:00:23;;;;;;;0.98;0.45;;;;;;;;;;4951562;28;20039;-80
2022/05/24 08:02:50;;;;;;;0.65;0.40;;;;;;;;;;4935377;29;20440;-81
2022/05/24 08:05:16;;;;;;;2.13;0.55;;;;;;;;;;4935159;28;20562;-80
2022/05/24 08:07:42;;;;;;;1.75;0.57;;;;;;;;;;4935044;28;20043;-81
2022/05/24 08:10:08;;;;;;;2.30;0.40;;;;;;;;;;4935372;29;20104;-81
2022/05/24 08:12:34;;;;;;;2.70;0.52;;;;;;;;;;4919078;29;20043;-81
2022/05/24 08:15:00;;;;;;;1.42;0.40;;;;;;;;;;5001792;28;20047;-81
2022/05/24 08:17:25;;;;;;;2.80;0.50;;;;;;;;;;5001137;28;20031;-81
2022/05/24 08:19:52;;;;;;;2.35;0.40;;;;;;;;;;4935027;29;20421;-81
2022/05/24 08:22:18;;;;;;;2.80;0.50;;;;;;;;;;4934842;28;20050;-81
2022/05/24 08:24:44;;;;;;;2.22;0.40;;;;;;;;;;4934925;28;20036;-81
2022/05/24 08:27:11;;;;;;;1.27;0.30;;;;;;;;;;4950533;28;20051;-81
2022/05/24 08:29:36;;;;;;;1.80;0.40;;;;;;;;;;4934972;29;20078;-81
2022/05/24 08:32:02;;;;;;;1.50;0.40;;;;;;;;;;4934769;28;20066;-81
2022/05/24 08:34:27;;;;;;;2.25;0.30;;;;;;;;;;5001648;28;20481;-81
2022/05/24 08:36:53;;;;;;;1.05;0.30;;;;;;;;;;4934667;28;20051;-80
2022/05/24 08:39:18;;;;;;;1.38;0.30;;;;;;;;;;5001573;28;20456;-81
2022/05/24 08:42:04;;;;;;;2.45;0.30;;;;;;;;;;5001523;28;20066;-81
2022/05/24 08:50:18;;;;;;;1.33;0.38;;;;;;;;;;4936741;29;20506;-81
2022/05/24 08:52:51;;;;;;;1.38;0.30;;;;;;;;;;4985061;28;20043;-81
2022/05/24 08:55:17;;;;;;;2.28;0.40;;;;;;;;;;4918449;28;20035;-81
2022/05/24 08:57:47;;;;;;;1.80;0.55;;;;;;;;;;4934314;28;20043;-81
2022/05/24 09:00:16;;;;;;;2.47;0.32;;;;;;;;;;5017695;28;20522;-81
2022/05/24 09:02:44;;;;;;;1.85;0.30;;;;;;;;;;4921339;28;20445;-81
2022/05/24 09:05:29;;;;;;;1.17;0.30;;;;;;;;;;4914909;29;20406;-81
2022/05/24 09:07:57;;;;;;;2.28;0.70;;;;;;;;;;4981580;28;20032;-81
2022/05/24 09:10:26;;;;;;;1.35;0.30;;;;;;;;;;4915038;28;20042;-81
2022/05/24 09:13:16;;;;;;;2.15;0.50;;;;;;;;;;4981492;28;20032;-80
2022/05/24 09:15:49;;;;;;;1.42;0.35;;;;;;;;;;4997429;28;20035;-81
2022/05/24 09:18:26;;;;;;;1.20;0.43;;;;;;;;;;4914710;28;20032;-81
2022/05/24 09:20:52;;;;;;;1.50;0.30;;;;;;;;;;4899118;28;20039;-81
2022/05/24 09:23:35;;;;;;;1.45;0.20;;;;;;;;;;4965059;28;20409;-81
2022/05/24 09:26:09;;;;;;;1.20;0.25;;;;;;;;;;4940072;28;20082;-81
2022/05/24 09:28:44;;;;;;;1.73;0.40;;;;;;;;;;5000957;28;20047;-81
2022/05/24 09:31:11;;;;;;;1.08;0.30;;;;;;;;;;5015730;28;20047;-81
2022/05/24 09:33:39;;;;;;;1.85;0.32;;;;;;;;;;4984563;28;20031;-81
2022/05/24 09:36:05;;;;;;;1.67;0.43;;;;;;;;;;5000869;28;20497;-81
2022/05/24 09:38:36;;;;;;;3.00;0.88;;;;;;;;;;5017247;28;20118;-81
2022/05/24 09:41:24;;;;;;;3.50;0.52;;;;;;;;;;4984476;28;20031;-80
2022/05/24 09:44:12;;;;;;;1.50;0.28;;;;;;;;;;5033731;28;20048;-81
2022/05/24 09:46:39;;;;;;;1.42;0.30;;;;;;;;;;4968743;28;20043;-81
2022/05/24 09:49:28;;;;;;;1.70;0.40;;;;;;;;;;4983744;28;20124;-80
2022/05/24 09:51:56;;;;;;;0.88;0.30;;;;;;;;;;4933659;28;20047;-81
2022/05/24 09:54:24;;;;;;;0.68;0.25;;;;;;;;;;4949768;28;20498;-81
2022/05/24 09:57:10;;;;;;;0.47;0.30;;;;;;;;;;4933727;28;20077;-81
2022/05/24 09:59:39;;;;;;;1.73;0.20;;;;;;;;;;4949407;28;20042;-81
2022/05/24 10:02:24;;;;;;;1.65;0.28;;;;;;;;;;4902100;28;20035;-81
2022/05/24 10:04:49;;;;;;;1.05;0.32;;;;;;;;;;4933225;28;20038;-81
2022/05/24 10:07:26;;;;;;;1.15;0.40;;;;;;;;;;4933361;29;20039;-80
2022/05/24 10:10:03;;;;;;;5.30;0.68;;;;;;;;;;4944679;28;20111;-80
2022/05/24 10:12:31;;;;;;;6.10;1.05;;;;;;;;;;4956638;28;20105;-80
2022/05/24 10:15:09;;;;;;;3.95;0.80;;;;;;;;;;4948887;28;20065;-80
2022/05/24 10:18:02;;;;;;;2.75;0.68;;;;;;;;;;4916663;28;20161;-81
2022/05/24 10:21:03;;;;;;;2.22;0.60;;;;;;;;;;5016747;28;20181;-81
2022/05/24 10:23:40;;;;;;;4.55;0.68;;;;;;;;;;4954051;28;20039;-80
2022/05/24 10:26:15;;;;;;;1.58;0.40;;;;;;;;;;4951576;28;20491;-80
2022/05/24 10:29:06;;;;;;;2.92;0.47;;;;;;;;;;4932914;28;20070;-80
2022/05/24 10:31:34;;;;;;;3.05;0.50;;;;;;;;;;4948950;28;20035;-80
2022/05/24 10:40:03;;;;;;;2.35;0.50;;;;;;;;;;4950915;28;20525;-80
2022/05/24 10:43:01;;;;;;;1.88;0.40;;;;;;;;;;4920745;28;20061;-80
2022/05/24 10:45:49;;;;;;;2.28;0.40;;;;;;;;;;4919645;28;20568;-80
2022/05/24 10:48:17;;;;;;;2.88;0.43;;;;;;;;;;4938166;29;20028;-80
2022/05/24 10:50:51;;;;;;;3.20;0.50;;;;;;;;;;4929623;28;20035;-80
2022/05/24 10:53:21;;;;;;;3.40;0.63;;;;;;;;;;4920366;29;20035;-81
2022/05/24 10:56:08;;;;;;;2.50;0.25;;;;;;;;;;4936143;28;20058;-80
2022/05/24 10:58:36;;;;;;;3.03;0.60;;;;;;;;;;4919705;28;20043;-80
2022/05/24 11:01:13;;;;;;;10.68;7.15;;;;;;;;;;4920257;28;20062;-81
2022/05/24 11:03:48;;;;;;;22.38;15.82;;;;;;;;;;4968055;28;20035;-81
2022/05/24 11:06:32;;;;;;;22.10;14.60;;;;;;;;;;4936279;28;20090;-81
2022/05/24 11:09:02;;;;;;;16.17;11.25;;;;;;;;;;5003164;28;20039;-81
2022/05/24 11:11:50;;;;;;;16.10;10.75;;;;;;;;;;4935972;28;20050;-81
2022/05/24 11:14:28;;;;;;;15.35;7.65;;;;;;;;;;5002546;28;20508;-81
2022/05/24 11:16:54;;;;;;;13.32;7.38;;;;;;;;;;4951552;28;20051;-80
2022/05/24 11:19:25;;;;;;;12.77;6.75;;;;;;;;;;4951562;29;20033;-81
2022/05/24 11:22:01;;;;;;;12.60;8.00;;;;;;;;;;4920005;28;20031;-81
2022/05/24 11:24:50;;;;;;;10.73;6.75;;;;;;;;;;4951938;29;20035;-81
2022/05/24 11:27:16;;;;;;;8.05;5.40;;;;;;;;;;4935503;28;20172;-81
2022/05/24 11:29:55;;;;;;;9.10;6.03;;;;;;;;;;5002257;28;20502;-81
2022/05/24 11:32:30;;;;;;;8.77;5.15;;;;;;;;;;5019338;28;20443;-81
2022/05/24 11:35:03;;;;;;;9.02;5.68;;;;;;;;;;5019490;28;20028;-81
2022/05/24 11:37:33;;;;;;;8.70;4.40;;;;;;;;;;4986889;28;20039;-81
2022/05/24 11:40:28;;;;;;;7.88;3.70;;;;;;;;;;5003131;28;20058;-81
2022/05/24 11:42:54;;;;;;;7.38;4.00;;;;;;;;;;5019130;28;20493;-81
2022/05/24 11:45:28;;;;;;;7.95;3.63;;;;;;;;;;4985827;28;20083;-81
2022/05/24 11:47:53;;;;;;;7.97;3.70;;;;;;;;;;4994557;28;20043;-81
2022/05/24 11:50:31;;;;;;;4.28;2.78;;;;;;;;;;4935288;28;20031;-81
2022/05/24 11:53:03;;;;;;;7.03;2.55;;;;;;;;;;4950210;28;20039;-81
2022/05/24 11:55:42;;;;;;;4.40;2.60;;;;;;;;;;4951213;29;20080;-81
2022/05/24 11:58:29;;;;;;;3.78;1.88;;;;;;;;;;4934728;28;20093;-81
2022/05/24 12:01:10;;;;;;;3.95;2.10;;;;;;;;;;4952699;28;20043;-81
2022/05/24 12:09:23;;;;;;;3.40;1.35;;;;;;;;;;4945242;28;20039;-82
2022/05/24 12:11:48;;;;;;;3.85;1.45;;;;;;;;;;4947274;28;20051;-81
2022/05/24 12:14:14;;;;;;;2.38;1.10;;;;;;;;;;4931579;28;20036;-81
2022/05/24 12:17:00;;;;;;;2.90;1.25;;;;;;;;;;4947947;29;20035;-81
2022/05/24 12:19:48;;;;;;;4.07;1.23;;;;;;;;;;4902748;28;20126;-81
2022/05/24 12:22:18;;;;;;;2.42;1.00;;;;;;;;;;4983086;28;20066;-81
2022/05/24 12:24:52;;;;;;;3.40;1.05;;;;;;;;;;4900390;28;20043;-81
2022/05/24 12:27:23;;;;;;;2.25;0.93;;;;;;;;;;4993735;28;20051;-80
2022/05/24 12:30:00;;;;;;;2.65;0.85;;;;;;;;;;4986215;28;20043;-81
2022/05/24 12:32:29;;;;;;;1.42;0.45;;;;;;;;;;5002803;28;20042;-81
2022/05/24 12:35:02;;;;;;;2.15;0.65;;;;;;;;;;5001791;28;20100;-81
2022/05/24 12:37:29;;;;;;;3.25;0.70;;;;;;;;;;5002048;28;20028;-81
2022/05/24 12:40:08;;;;;;;1.88;0.82;;;;;;;;;;5001706;28;20035;-81
2022/05/24 12:42:34;;;;;;;2.42;0.60;;;;;;;;;;4985864;28;20486;-81
2022/05/24 12:45:00;;;;;;;1.90;0.60;;;;;;;;;;5001089;28;20035;-81
2022/05/24 12:47:26;;;;;;;2.75;0.95;;;;;;;;;;4997521;28;20449;-82
2022/05/24 12:49:58;;;;;;;1.88;0.50;;;;;;;;;;5017475;28;20044;-81
2022/05/24 12:52:24;;;;;;;;;;;;;;;;;;4950802;28;20564;-81
2022/05/24 12:54:51;;;;;;;1.55;0.50;;;;;;;;;;4966392;28;19997;-81
2022/05/24 12:57:18;;;;;;;1.60;0.57;;;;;;;;;;4917885;29;20470;-81
2022/05/24 12:59:51;;;;;;;1.50;0.50;;;;;;;;;;4950331;28;20039;-80
2022/05/24 13:02:44;;;;;;;2.15;0.50;;;;;;;;;;4915230;28;20036;-81
2022/05/24 13:05:11;;;;;;;1.98;0.50;;;;;;;;;;4905438;28;20493;-81
2022/05/24 13:07:42;;;;;;;1.67;0.57;;;;;;;;;;4997939;28;20043;-81
2022/05/24 13:10:28;;;;;;;2.93;0.40;;;;;;;;;;4946551;28;20035;-81
2022/05/24 13:12:56;;;;;;;1.40;0.40;;;;;;;;;;4899062;28;20097;-81
2022/05/24 13:15:42;;;;;;;1.30;0.45;;;;;;;;;;4947341;28;20532;-81
2022/05/24 13:18:16;;;;;;;1.70;0.40;;;;;;;;;;4909858;28;20040;-81
2022/05/24 13:20:43;;;;;;;1.95;0.55;;;;;;;;;;4934436;28;20129;-81
2022/05/24 13:23:15;;;;;;;1.52;0.73;;;;;;;;;;4934402;28;20039;-81
2022/05/24 13:25:45;;;;;;;0.65;0.30;;;;;;;;;;4949065;28;20121;-81
2022/05/24 13:28:10;;;;;;;0.82;0.30;;;;;;;;;;5016827;28;20452;-82
2022/05/24 13:33:35;;;;;;;1.27;0.50;;;;;;;;;;5003262;28;20071;-82
2022/05/24 13:36:16;;;;;;;0.70;0.20;;;;;;;;;;5001585;28;20042;-82
2022/05/24 13:38:42;;;;;;;3.45;0.90;;;;;;;;;;5033584;28;20043;-82
2022/05/24 13:41:09;;;;;;;2.35;0.80;;;;;;;;;;5000350;28;20050;-83
2022/05/24 13:43:43;;;;;;;2.40;0.50;;;;;;;;;;5000063;28;20035;-82
2022/05/24 13:46:15;;;;;;;1.83;0.50;;;;;;;;;;4998481;28;20509;-82
2022/05/24 13:49:01;;;;;;;2.22;0.45;;;;;;;;;;5014491;28;20562;-82
2022/05/24 13:51:27;;;;;;;3.70;0.50;;;;;;;;;;4948618;29;20044;-82
2022/05/24 13:53:53;;;;;;;1.48;0.40;;;;;;;;;;4949693;28;20043;-82
2022/05/24 13:56:22;;;;;;;2.72;0.60;;;;;;;;;;4984347;28;20127;-82
2022/05/24 13:59:05;;;;;;;0.90;0.40;;;;;;;;;;5016553;28;20074;-82
2022/05/24 14:01:38;;;;;;;0.88;0.20;;;;;;;;;;4919408;28;20063;-83
2022/05/24 14:04:26;;;;;;;3.25;1.30;;;;;;;;;;5016419;28;20058;-82
2022/05/24 14:06:53;;;;;;;4.70;2.83;;;;;;;;;;5015338;28;20047;-82
2022/05/24 14:09:20;;;;;;;5.10;2.83;;;;;;;;;;4933208;28;20122;-82
2022/05/24 14:11:56;;;;;;;5.72;2.80;;;;;;;;;;4933319;28;20032;-82
2022/05/24 14:14:21;;;;;;;6.82;2.00;;;;;;;;;;4932327;29;20034;-82
2022/05/24 14:16:48;;;;;;;4.28;1.45;;;;;;;;;;5003378;28;20032;-82
2022/05/24 14:19:13;;;;;;;2.67;0.55;;;;;;;;;;4920788;28;20092;-82
2022/05/24 14:21:40;;;;;;;5.60;1.10;;;;;;;;;;4948276;28;20039;-82
2022/05/24 14:24:16;;;;;;;6.45;0.88;;;;;;;;;;5019672;28;20047;-82
2022/05/24 14:26:43;;;;;;;4.10;0.90;;;;;;;;;;4920355;28;20066;-81
2022/05/24 14:29:08;;;;;;;2.95;0.80;;;;;;;;;;4920740;28;20069;-82
2022/05/24 14:31:34;;;;;;;2.13;0.50;;;;;;;;;;4920991;28;20031;-82
2022/05/24 14:33:59;;;;;;;2.03;0.68;;;;;;;;;;4921226;29;20442;-82
2022/05/24 14:36:25;;;;;;;8.90;0.70;;;;;;;;;;4936659;29;20036;-82
2022/05/24 14:38:50;;;;;;;10.90;1.85;;;;;;;;;;4904198;29;20414;-81
2022/05/24 14:41:21;;;;;;;20.58;2.00;;;;;;;;;;4920039;29;20028;-82
2022/05/24 14:43:59;;;;;;;6.50;1.38;;;;;;;;;;4937219;29;20039;-82
2022/05/24 14:46:25;;;;;;;4.82;0.90;;;;;;;;;;4972605;28;20035;-82
2022/05/24 14:48:51;;;;;;;2.83;0.60;;;;;;;;;;4935877;28;20043;-82
2022/05/24 14:51:26;;;;;;;2.90;1.00;;;;;;;;;;4937746;28;20032;-81
2022/05/24 14:53:52;;;;;;;4.57;0.88;;;;;;;;;;4983321;28;20122;-82
2022/05/24 14:56:17;;;;;;;2.08;0.45;;;;;;;;;;4932835;28;20052;-83
2022/05/24 14:58:42;;;;;;;2.70;0.50;;;;;;;;;;4999962;28;20082;-81
2022/05/24 15:01:08;;;;;;;4.32;0.68;;;;;;;;;;4984434;28;20441;-81
2022/05/24 15:03:33;;;;;;;3.63;0.90;;;;;;;;;;4936275;29;20039;-81
2022/05/24 15:05:59;;;;;;;3.17;1.38;;;;;;;;;;4935919;28;20047;-81
2022/05/24 15:16:38;;;;;;;4.07;0.57;;;;;;;;;;4952146;29;20047;-81
2022/05/24 15:19:04;;;;;;;3.60;0.60;;;;;;;;;;4952015;28;20070;-81
2022/05/24 15:21:31;;;;;;;5.15;0.60;;;;;;;;;;5019482;28;20065;-81
2022/05/24 15:23:57;;;;;;;3.17;0.68;;;;;;;;;;5003255;28;20106;-80
2022/05/24 15:26:29;;;;;;;5.22;0.40;;;;;;;;;;4918628;28;20493;-80
2022/05/24 15:28:55;;;;;;;3.45;0.50;;;;;;;;;;4951513;29;20452;-81
2022/05/24 15:31:24;;;;;;;8.77;1.08;;;;;;;;;;4919757;28;20035;-80
2022/05/24 15:33:49;;;;;;;2.45;0.80;;;;;;;;;;4936125;29;20039;-81
2022/05/24 15:36:15;;;;;;;43.20;23.65;;;;;;;;;;4919708;28;20070;-81
2022/05/24 15:38:41;;;;;;;25.05;14.45;;;;;;;;;;4935501;29;20035;-81
2022/05/24 15:41:08;;;;;;;16.63;9.68;;;;;;;;;;4935669;28;20401;-80
2022/05/24 15:43:44;;;;;;;17.95;7.57;;;;;;;;;;4919870;28;20043;-80
2022/05/24 15:46:11;;;;;;;14.07;5.90;;;;;;;;;;4919919;28;20061;-81
2022/05/24 15:48:36;;;;;;;11.45;5.35;;;;;;;;;;4932972;28;20569;-80
2022/05/24 15:51:02;;;;;;;9.73;3.17;;;;;;;;;;4954428;28;20031;-81
2022/05/24 15:53:31;;;;;;;7.95;2.92;;;;;;;;;;4938450;28;20039;-82